sensor_id;sensor_type;location;lat;lon;timestamp;temperature;humidity
38938;DHT22;24727;51.974;20.868;2023-07-09T00:01:18;17.10;1.00
38938;DHT22;24727;51.974;20.868;2023-07-09T00:03:45;17.00;1.00
38938;DHT22;24727;51.974;20.868;2023-07-09T00:06:13;17.00;1.00
38938;DHT22;24727;51.974;20.868;2023-07-09T00:08:43;16.60;1.00
38938;DHT22;24727;51.974;20.868;2023-07-09T00:11:11;16.50;1.00
38938;DHT22;24727;51.974;20.868;2023-07-09T00:13:38;16.40;1.00
38938;DHT22;24727;51.974;20.868;2023-07-09T00:16:21;16.40;1.00
38938;DHT22;24727;51.974;20.868;2023-07-09T00:18:49;16.30;1.00
38938;DHT22;24727;51.974;20.868;2023-07-09T00:21:18;16.30;1.00
38938;DHT22;24727;51.974;20.868;2023-07-09T00:23:45;16.30;1.00
38938;DHT22;24727;51.974;20.868;2023-07-09T00:26:15;16.30;1.00
38938;DHT22;24727;51.974;20.868;2023-07-09T00:28:43;16.30;1.00
38938;DHT22;24727;51.974;20.868;2023-07-09T00:31:13;16.30;1.00
38938;DHT22;24727;51.974;20.868;2023-07-09T00:33:41;16.30;1.00
38938;DHT22;24727;51.974;20.868;2023-07-09T00:36:35;16.30;1.00
38938;DHT22;24727;51.974;20.868;2023-07-09T00:39:02;16.30;1.00
38938;DHT22;24727;51.974;20.868;2023-07-09T00:41:34;16.30;1.00
38938;DHT22;24727;51.974;20.868;2023-07-09T00:49:42;16.20;1.00
38938;DHT22;24727;51.974;20.868;2023-07-09T00:52:49;16.00;1.00
38938;DHT22;24727;51.974;20.868;2023-07-09T00:55:21;16.10;1.00
38938;DHT22;24727;51.974;20.868;2023-07-09T00:57:52;15.90;1.00
38938;DHT22;24727;51.974;20.868;2023-07-09T01:00:34;15.70;1.00
38938;DHT22;24727;51.974;20.868;2023-07-09T01:03:10;15.60;1.00
38938;DHT22;24727;51.974;20.868;2023-07-09T01:05:39;15.70;1.00
38938;DHT22;24727;51.974;20.868;2023-07-09T01:08:06;15.70;1.00
38938;DHT22;24727;51.974;20.868;2023-07-09T01:10:35;15.50;1.00
38938;DHT22;24727;51.974;20.868;2023-07-09T01:13:01;15.50;1.00
38938;DHT22;24727;51.974;20.868;2023-07-09T01:15:28;15.60;1.00
38938;DHT22;24727;51.974;20.868;2023-07-09T01:17:53;15.70;1.00
38938;DHT22;24727;51.974;20.868;2023-07-09T01:20:20;15.60;1.00
38938;DHT22;24727;51.974;20.868;2023-07-09T01:22:48;15.60;1.00
38938;DHT22;24727;51.974;20.868;2023-07-09T01:25:16;15.70;1.00
38938;DHT22;24727;51.974;20.868;2023-07-09T01:27:45;15.70;1.00
38938;DHT22;24727;51.974;20.868;2023-07-09T01:30:25;15.70;1.00
38938;DHT22;24727;51.974;20.868;2023-07-09T01:32:57;15.80;1.00
38938;DHT22;24727;51.974;20.868;2023-07-09T01:35:24;15.80;1.00
38938;DHT22;24727;51.974;20.868;2023-07-09T01:37:52;15.60;1.00
38938;DHT22;24727;51.974;20.868;2023-07-09T01:40:22;15.50;1.00
38938;DHT22;24727;51.974;20.868;2023-07-09T01:42:51;15.40;1.00
38938;DHT22;24727;51.974;20.868;2023-07-09T01:45:24;15.20;1.00
38938;DHT22;24727;51.974;20.868;2023-07-09T01:47:50;15.20;1.00
38938;DHT22;24727;51.974;20.868;2023-07-09T01:50:16;15.20;1.00
38938;DHT22;24727;51.974;20.868;2023-07-09T01:52:44;15.10;1.00
38938;DHT22;24727;51.974;20.868;2023-07-09T01:55:12;15.10;1.00
38938;DHT22;24727;51.974;20.868;2023-07-09T01:57:38;15.10;1.00
38938;DHT22;24727;51.974;20.868;2023-07-09T02:00:09;15.00;1.00
38938;DHT22;24727;51.974;20.868;2023-07-09T02:02:38;15.00;1.00
38938;DHT22;24727;51.974;20.868;2023-07-09T02:05:05;14.80;1.00
38938;DHT22;24727;51.974;20.868;2023-07-09T02:07:31;14.80;1.00
38938;DHT22;24727;51.974;20.868;2023-07-09T02:10:03;14.80;1.00
38938;DHT22;24727;51.974;20.868;2023-07-09T02:12:31;14.70;1.00
38938;DHT22;24727;51.974;20.868;2023-07-09T02:14:57;14.70;1.00
38938;DHT22;24727;51.974;20.868;2023-07-09T02:17:23;14.70;1.00
38938;DHT22;24727;51.974;20.868;2023-07-09T02:19:55;14.60;1.00
38938;DHT22;24727;51.974;20.868;2023-07-09T02:22:23;14.60;1.00
38938;DHT22;24727;51.974;20.868;2023-07-09T02:24:50;14.60;1.00
38938;DHT22;24727;51.974;20.868;2023-07-09T02:27:19;14.60;1.00
38938;DHT22;24727;51.974;20.868;2023-07-09T02:29:46;14.50;1.00
38938;DHT22;24727;51.974;20.868;2023-07-09T02:32:18;14.50;1.00
38938;DHT22;24727;51.974;20.868;2023-07-09T02:34:44;14.50;1.00
38938;DHT22;24727;51.974;20.868;2023-07-09T02:37:21;14.50;1.00
38938;DHT22;24727;51.974;20.868;2023-07-09T02:39:48;14.40;1.00
38938;DHT22;24727;51.974;20.868;2023-07-09T02:42:16;14.40;1.00
38938;DHT22;24727;51.974;20.868;2023-07-09T02:44:44;14.40;1.00
38938;DHT22;24727;51.974;20.868;2023-07-09T02:47:11;14.30;1.00
38938;DHT22;24727;51.974;20.868;2023-07-09T02:49:39;14.30;1.00
38938;DHT22;24727;51.974;20.868;2023-07-09T02:52:05;14.30;1.00
38938;DHT22;24727;51.974;20.868;2023-07-09T02:54:31;14.30;1.00
38938;DHT22;24727;51.974;20.868;2023-07-09T02:56:58;14.30;1.00
38938;DHT22;24727;51.974;20.868;2023-07-09T02:59:24;14.30;1.00
38938;DHT22;24727;51.974;20.868;2023-07-09T03:01:52;14.30;1.00
38938;DHT22;24727;51.974;20.868;2023-07-09T03:04:18;14.20;1.00
38938;DHT22;24727;51.974;20.868;2023-07-09T03:06:47;14.30;1.00
38938;DHT22;24727;51.974;20.868;2023-07-09T03:09:13;14.20;1.00
38938;DHT22;24727;51.974;20.868;2023-07-09T03:11:39;14.20;1.00
38938;DHT22;24727;51.974;20.868;2023-07-09T03:14:05;14.30;1.00
38938;DHT22;24727;51.974;20.868;2023-07-09T03:16:33;14.30;1.00
38938;DHT22;24727;51.974;20.868;2023-07-09T03:19:00;14.30;1.00
38938;DHT22;24727;51.974;20.868;2023-07-09T03:21:27;14.40;1.00
38938;DHT22;24727;51.974;20.868;2023-07-09T03:24:05;14.40;1.00
38938;DHT22;24727;51.974;20.868;2023-07-09T03:26:31;14.50;1.00
38938;DHT22;24727;51.974;20.868;2023-07-09T03:28:58;14.60;1.00
38938;DHT22;24727;51.974;20.868;2023-07-09T03:31:24;14.60;1.00
38938;DHT22;24727;51.974;20.868;2023-07-09T03:33:52;14.70;1.00
38938;DHT22;24727;51.974;20.868;2023-07-09T03:36:20;14.80;1.00
38938;DHT22;24727;51.974;20.868;2023-07-09T03:38:47;14.90;1.00
38938;DHT22;24727;51.974;20.868;2023-07-09T03:41:13;15.00;1.00
38938;DHT22;24727;51.974;20.868;2023-07-09T03:43:39;15.10;1.00
38938;DHT22;24727;51.974;20.868;2023-07-09T03:46:13;15.20;1.00
38938;DHT22;24727;51.974;20.868;2023-07-09T03:48:41;15.30;1.00
38938;DHT22;24727;51.974;20.868;2023-07-09T03:51:07;15.50;1.00
38938;DHT22;24727;51.974;20.868;2023-07-09T03:53:33;15.50;1.00
38938;DHT22;24727;51.974;20.868;2023-07-09T03:55:59;15.60;1.00
38938;DHT22;24727;51.974;20.868;2023-07-09T03:58:26;15.80;1.00
38938;DHT22;24727;51.974;20.868;2023-07-09T04:00:53;15.90;1.00
38938;DHT22;24727;51.974;20.868;2023-07-09T04:03:23;16.10;1.00
38938;DHT22;24727;51.974;20.868;2023-07-09T04:05:50;16.20;1.00
38938;DHT22;24727;51.974;20.868;2023-07-09T04:08:17;16.40;1.00
38938;DHT22;24727;51.974;20.868;2023-07-09T04:10:43;16.60;1.00
38938;DHT22;24727;51.974;20.868;2023-07-09T04:13:10;16.80;1.00
38938;DHT22;24727;51.974;20.868;2023-07-09T04:15:36;17.00;1.00
38938;DHT22;24727;51.974;20.868;2023-07-09T04:18:09;17.20;1.00
38938;DHT22;24727;51.974;20.868;2023-07-09T04:20:35;17.40;1.00
38938;DHT22;24727;51.974;20.868;2023-07-09T04:23:02;17.50;1.00
38938;DHT22;24727;51.974;20.868;2023-07-09T04:25:28;17.70;1.00
38938;DHT22;24727;51.974;20.868;2023-07-09T04:27:56;18.00;1.00
38938;DHT22;24727;51.974;20.868;2023-07-09T04:30:22;18.10;1.00
38938;DHT22;24727;51.974;20.868;2023-07-09T04:32:48;18.10;1.00
38938;DHT22;24727;51.974;20.868;2023-07-09T04:35:14;18.20;1.00
38938;DHT22;24727;51.974;20.868;2023-07-09T04:37:41;18.30;1.00
38938;DHT22;24727;51.974;20.868;2023-07-09T04:40:08;18.50;1.00
38938;DHT22;24727;51.974;20.868;2023-07-09T04:42:37;18.70;1.00
38938;DHT22;24727;51.974;20.868;2023-07-09T04:45:05;18.90;1.00
38938;DHT22;24727;51.974;20.868;2023-07-09T04:47:31;19.10;1.00
38938;DHT22;24727;51.974;20.868;2023-07-09T04:49:58;19.30;1.00
38938;DHT22;24727;51.974;20.868;2023-07-09T04:52:24;19.40;1.00
38938;DHT22;24727;51.974;20.868;2023-07-09T04:54:50;19.60;1.00
38938;DHT22;24727;51.974;20.868;2023-07-09T04:57:17;19.80;1.00
38938;DHT22;24727;51.974;20.868;2023-07-09T04:59:44;19.90;1.00
38938;DHT22;24727;51.974;20.868;2023-07-09T05:02:11;19.90;1.00
38938;DHT22;24727;51.974;20.868;2023-07-09T05:04:38;20.00;1.00
38938;DHT22;24727;51.974;20.868;2023-07-09T05:07:06;20.20;1.00
38938;DHT22;24727;51.974;20.868;2023-07-09T05:09:32;20.30;1.00
38938;DHT22;24727;51.974;20.868;2023-07-09T05:11:59;20.60;1.00
38938;DHT22;24727;51.974;20.868;2023-07-09T05:14:27;20.90;1.00
38938;DHT22;24727;51.974;20.868;2023-07-09T05:16:53;21.10;1.00
38938;DHT22;24727;51.974;20.868;2023-07-09T05:19:23;21.10;1.00
38938;DHT22;24727;51.974;20.868;2023-07-09T05:21:50;21.20;1.00
38938;DHT22;24727;51.974;20.868;2023-07-09T05:24:15;21.40;1.00
38938;DHT22;24727;51.974;20.868;2023-07-09T05:26:41;21.50;1.00
38938;DHT22;24727;51.974;20.868;2023-07-09T05:29:07;21.70;1.00
38938;DHT22;24727;51.974;20.868;2023-07-09T05:31:33;21.80;1.00
38938;DHT22;24727;51.974;20.868;2023-07-09T05:34:01;21.60;1.00
38938;DHT22;24727;51.974;20.868;2023-07-09T05:36:28;21.80;1.00
38938;DHT22;24727;51.974;20.868;2023-07-09T05:38:55;21.80;1.00
38938;DHT22;24727;51.974;20.868;2023-07-09T05:41:22;21.80;1.00
38938;DHT22;24727;51.974;20.868;2023-07-09T05:43:50;22.10;1.00
38938;DHT22;24727;51.974;20.868;2023-07-09T05:46:18;22.20;1.00
38938;DHT22;24727;51.974;20.868;2023-07-09T05:48:44;22.40;1.00
38938;DHT22;24727;51.974;20.868;2023-07-09T05:51:12;22.70;1.00
38938;DHT22;24727;51.974;20.868;2023-07-09T05:53:38;22.90;1.00
38938;DHT22;24727;51.974;20.868;2023-07-09T05:56:05;23.10;1.00
38938;DHT22;24727;51.974;20.868;2023-07-09T05:58:32;23.00;1.00
38938;DHT22;24727;51.974;20.868;2023-07-09T06:00:58;23.00;1.00
38938;DHT22;24727;51.974;20.868;2023-07-09T06:03:25;23.20;1.00
38938;DHT22;24727;51.974;20.868;2023-07-09T06:05:52;23.20;1.00
38938;DHT22;24727;51.974;20.868;2023-07-09T06:08:20;23.50;1.00
38938;DHT22;24727;51.974;20.868;2023-07-09T06:11:02;23.70;1.00
38938;DHT22;24727;51.974;20.868;2023-07-09T06:13:29;24.00;1.00
38938;DHT22;24727;51.974;20.868;2023-07-09T06:15:59;23.90;1.00
38938;DHT22;24727;51.974;20.868;2023-07-09T06:18:26;23.90;1.00
38938;DHT22;24727;51.974;20.868;2023-07-09T06:20:58;23.80;1.00
38938;DHT22;24727;51.974;20.868;2023-07-09T06:23:25;24.10;1.00
38938;DHT22;24727;51.974;20.868;2023-07-09T06:25:51;24.20;1.00
38938;DHT22;24727;51.974;20.868;2023-07-09T06:28:20;24.40;1.00
38938;DHT22;24727;51.974;20.868;2023-07-09T06:30:47;24.60;1.00
38938;DHT22;24727;51.974;20.868;2023-07-09T06:33:17;24.60;1.00
38938;DHT22;24727;51.974;20.868;2023-07-09T06:35:49;24.90;1.00
38938;DHT22;24727;51.974;20.868;2023-07-09T06:38:15;25.20;1.00
38938;DHT22;24727;51.974;20.868;2023-07-09T06:40:42;25.10;1.00
38938;DHT22;24727;51.974;20.868;2023-07-09T06:43:09;24.90;1.00
38938;DHT22;24727;51.974;20.868;2023-07-09T06:45:37;25.30;1.00
38938;DHT22;24727;51.974;20.868;2023-07-09T06:48:03;25.60;1.00
38938;DHT22;24727;51.974;20.868;2023-07-09T06:50:33;25.80;1.00
38938;DHT22;24727;51.974;20.868;2023-07-09T06:52:59;26.00;1.00
38938;DHT22;24727;51.974;20.868;2023-07-09T06:55:25;25.20;1.00
38938;DHT22;24727;51.974;20.868;2023-07-09T06:57:51;24.90;1.00
38938;DHT22;24727;51.974;20.868;2023-07-09T07:00:18;25.30;1.00
38938;DHT22;24727;51.974;20.868;2023-07-09T07:02:45;25.60;1.00
38938;DHT22;24727;51.974;20.868;2023-07-09T07:05:12;25.70;1.00
38938;DHT22;24727;51.974;20.868;2023-07-09T07:07:39;26.40;1.00
38938;DHT22;24727;51.974;20.868;2023-07-09T07:10:05;26.40;1.00
38938;DHT22;24727;51.974;20.868;2023-07-09T07:12:42;26.70;1.00
38938;DHT22;24727;51.974;20.868;2023-07-09T07:15:09;26.90;1.00
38938;DHT22;24727;51.974;20.868;2023-07-09T07:17:35;27.10;1.00
38938;DHT22;24727;51.974;20.868;2023-07-09T07:20:01;27.00;1.00
38938;DHT22;24727;51.974;20.868;2023-07-09T07:22:27;27.50;1.00
38938;DHT22;24727;51.974;20.868;2023-07-09T07:24:53;27.60;1.00
38938;DHT22;24727;51.974;20.868;2023-07-09T07:27:19;28.20;1.00
38938;DHT22;24727;51.974;20.868;2023-07-09T07:29:45;28.50;1.00
38938;DHT22;24727;51.974;20.868;2023-07-09T07:32:11;28.80;1.00
38938;DHT22;24727;51.974;20.868;2023-07-09T07:34:37;28.90;1.00
38938;DHT22;24727;51.974;20.868;2023-07-09T07:37:04;29.10;1.00
38938;DHT22;24727;51.974;20.868;2023-07-09T07:39:30;27.90;1.00
38938;DHT22;24727;51.974;20.868;2023-07-09T07:41:57;27.90;1.00
38938;DHT22;24727;51.974;20.868;2023-07-09T07:44:25;28.70;1.00
38938;DHT22;24727;51.974;20.868;2023-07-09T07:46:51;29.50;1.00
38938;DHT22;24727;51.974;20.868;2023-07-09T07:49:18;29.70;1.00
38938;DHT22;24727;51.974;20.868;2023-07-09T07:51:45;30.10;1.00
38938;DHT22;24727;51.974;20.868;2023-07-09T07:54:11;30.50;1.00
38938;DHT22;24727;51.974;20.868;2023-07-09T07:56:37;29.90;1.00
38938;DHT22;24727;51.974;20.868;2023-07-09T07:59:04;27.70;1.00
38938;DHT22;24727;51.974;20.868;2023-07-09T08:01:29;26.30;1.00
38938;DHT22;24727;51.974;20.868;2023-07-09T08:03:56;27.10;1.00
38938;DHT22;24727;51.974;20.868;2023-07-09T08:06:23;28.00;1.00
38938;DHT22;24727;51.974;20.868;2023-07-09T08:08:49;27.80;1.00
38938;DHT22;24727;51.974;20.868;2023-07-09T08:11:16;28.00;1.00
38938;DHT22;24727;51.974;20.868;2023-07-09T08:13:42;28.50;1.00
38938;DHT22;24727;51.974;20.868;2023-07-09T08:16:08;28.00;1.00
38938;DHT22;24727;51.974;20.868;2023-07-09T08:18:38;28.90;1.00
38938;DHT22;24727;51.974;20.868;2023-07-09T08:21:04;28.10;1.00
38938;DHT22;24727;51.974;20.868;2023-07-09T08:23:30;28.30;1.00
38938;DHT22;24727;51.974;20.868;2023-07-09T08:25:58;28.70;1.00
38938;DHT22;24727;51.974;20.868;2023-07-09T08:28:25;28.40;1.00
38938;DHT22;24727;51.974;20.868;2023-07-09T08:30:54;29.30;1.00
38938;DHT22;24727;51.974;20.868;2023-07-09T08:33:21;30.00;1.00
38938;DHT22;24727;51.974;20.868;2023-07-09T08:35:52;30.80;1.00
38938;DHT22;24727;51.974;20.868;2023-07-09T08:38:19;31.00;1.00
38938;DHT22;24727;51.974;20.868;2023-07-09T08:41:01;31.70;1.00
38938;DHT22;24727;51.974;20.868;2023-07-09T08:44:00;32.00;1.00
38938;DHT22;24727;51.974;20.868;2023-07-09T08:46:48;30.80;1.00
38938;DHT22;24727;51.974;20.868;2023-07-09T08:49:21;30.50;1.00
38938;DHT22;24727;51.974;20.868;2023-07-09T08:51:49;29.30;1.00
38938;DHT22;24727;51.974;20.868;2023-07-09T08:54:25;28.50;1.00
38938;DHT22;24727;51.974;20.868;2023-07-09T08:56:52;29.50;1.00
38938;DHT22;24727;51.974;20.868;2023-07-09T08:59:19;30.60;1.00
38938;DHT22;24727;51.974;20.868;2023-07-09T09:01:52;30.00;1.00
38938;DHT22;24727;51.974;20.868;2023-07-09T09:04:35;29.90;1.00
38938;DHT22;24727;51.974;20.868;2023-07-09T09:07:25;27.80;1.00
38938;DHT22;24727;51.974;20.868;2023-07-09T09:09:58;27.20;1.00
38938;DHT22;24727;51.974;20.868;2023-07-09T09:12:37;28.20;1.00
38938;DHT22;24727;51.974;20.868;2023-07-09T09:15:16;27.20;1.00
38938;DHT22;24727;51.974;20.868;2023-07-09T09:17:43;27.30;1.00
38938;DHT22;24727;51.974;20.868;2023-07-09T09:20:23;27.70;1.00
38938;DHT22;24727;51.974;20.868;2023-07-09T09:22:56;27.40;1.00
38938;DHT22;24727;51.974;20.868;2023-07-09T09:25:27;27.40;1.00
38938;DHT22;24727;51.974;20.868;2023-07-09T09:27:54;27.20;1.00
38938;DHT22;24727;51.974;20.868;2023-07-09T09:30:23;28.10;1.00
38938;DHT22;24727;51.974;20.868;2023-07-09T09:33:02;27.90;1.00
38938;DHT22;24727;51.974;20.868;2023-07-09T09:35:30;27.60;1.00
38938;DHT22;24727;51.974;20.868;2023-07-09T09:37:58;28.70;1.00
38938;DHT22;24727;51.974;20.868;2023-07-09T09:40:27;27.50;1.00
38938;DHT22;24727;51.974;20.868;2023-07-09T09:42:57;26.90;1.00
38938;DHT22;24727;51.974;20.868;2023-07-09T09:45:38;26.50;1.00
38938;DHT22;24727;51.974;20.868;2023-07-09T09:48:19;26.10;1.00
38938;DHT22;24727;51.974;20.868;2023-07-09T09:50:47;26.10;1.00
38938;DHT22;24727;51.974;20.868;2023-07-09T09:53:23;26.80;1.00
38938;DHT22;24727;51.974;20.868;2023-07-09T09:55:52;27.10;1.00
38938;DHT22;24727;51.974;20.868;2023-07-09T09:58:19;27.50;1.00
38938;DHT22;24727;51.974;20.868;2023-07-09T10:00:51;29.10;1.00
38938;DHT22;24727;51.974;20.868;2023-07-09T10:03:19;30.60;1.00
38938;DHT22;24727;51.974;20.868;2023-07-09T10:05:59;29.70;1.00
38938;DHT22;24727;51.974;20.868;2023-07-09T10:11:29;30.70;1.00
38938;DHT22;24727;51.974;20.868;2023-07-09T10:14:08;32.20;1.00
38938;DHT22;24727;51.974;20.868;2023-07-09T10:16:44;31.90;1.00
38938;DHT22;24727;51.974;20.868;2023-07-09T10:19:25;32.10;1.00
38938;DHT22;24727;51.974;20.868;2023-07-09T10:22:00;32.60;1.00
38938;DHT22;24727;51.974;20.868;2023-07-09T10:24:42;32.10;1.00
38938;DHT22;24727;51.974;20.868;2023-07-09T10:27:19;33.60;1.00
38938;DHT22;24727;51.974;20.868;2023-07-09T10:30:02;34.40;1.00
38938;DHT22;24727;51.974;20.868;2023-07-09T10:40:41;30.50;1.00
38938;DHT22;24727;51.974;20.868;2023-07-09T10:43:13;30.90;1.00
38938;DHT22;24727;51.974;20.868;2023-07-09T10:45:44;29.30;1.00
38938;DHT22;24727;51.974;20.868;2023-07-09T10:48:38;28.40;1.00
38938;DHT22;24727;51.974;20.868;2023-07-09T10:51:18;27.80;1.00
38938;DHT22;24727;51.974;20.868;2023-07-09T10:53:55;29.20;1.00
38938;DHT22;24727;51.974;20.868;2023-07-09T10:56:26;29.30;1.00
38938;DHT22;24727;51.974;20.868;2023-07-09T10:59:25;28.30;1.00
38938;DHT22;24727;51.974;20.868;2023-07-09T11:01:59;28.40;1.00
38938;DHT22;24727;51.974;20.868;2023-07-09T11:04:44;27.00;1.00
38938;DHT22;24727;51.974;20.868;2023-07-09T11:07:15;26.70;1.00
38938;DHT22;24727;51.974;20.868;2023-07-09T11:09:45;26.90;1.00
38938;DHT22;24727;51.974;20.868;2023-07-09T11:12:19;26.20;1.00
38938;DHT22;24727;51.974;20.868;2023-07-09T11:17:27;26.00;1.00
38938;DHT22;24727;51.974;20.868;2023-07-09T11:19:57;26.70;1.00
38938;DHT22;24727;51.974;20.868;2023-07-09T11:22:36;27.20;1.00
38938;DHT22;24727;51.974;20.868;2023-07-09T11:25:09;29.00;1.00
38938;DHT22;24727;51.974;20.868;2023-07-09T11:28:00;29.60;1.00
38938;DHT22;24727;51.974;20.868;2023-07-09T11:30:28;30.00;1.00
38938;DHT22;24727;51.974;20.868;2023-07-09T11:33:03;31.70;1.00
38938;DHT22;24727;51.974;20.868;2023-07-09T11:35:48;32.90;1.00
38938;DHT22;24727;51.974;20.868;2023-07-09T11:38:23;34.30;1.00
38938;DHT22;24727;51.974;20.868;2023-07-09T11:40:55;31.80;1.00
38938;DHT22;24727;51.974;20.868;2023-07-09T11:43:47;32.00;1.00
38938;DHT22;24727;51.974;20.868;2023-07-09T11:46:20;31.90;1.00
38938;DHT22;24727;51.974;20.868;2023-07-09T11:48:48;33.80;1.00
38938;DHT22;24727;51.974;20.868;2023-07-09T11:51:18;34.40;1.00
38938;DHT22;24727;51.974;20.868;2023-07-09T11:53:55;35.60;1.00
38938;DHT22;24727;51.974;20.868;2023-07-09T11:56:23;34.40;1.00
38938;DHT22;24727;51.974;20.868;2023-07-09T11:58:54;34.20;1.00
38938;DHT22;24727;51.974;20.868;2023-07-09T12:01:31;34.20;1.00
38938;DHT22;24727;51.974;20.868;2023-07-09T12:03:58;34.50;1.00
38938;DHT22;24727;51.974;20.868;2023-07-09T12:06:26;34.00;1.00
38938;DHT22;24727;51.974;20.868;2023-07-09T12:08:54;30.50;1.00
38938;DHT22;24727;51.974;20.868;2023-07-09T12:11:27;30.10;1.00
38938;DHT22;24727;51.974;20.868;2023-07-09T12:14:13;30.60;1.00
38938;DHT22;24727;51.974;20.868;2023-07-09T12:16:42;32.00;1.00
38938;DHT22;24727;51.974;20.868;2023-07-09T12:19:12;33.20;1.00
38938;DHT22;24727;51.974;20.868;2023-07-09T12:21:40;33.40;1.00
38938;DHT22;24727;51.974;20.868;2023-07-09T12:24:24;31.30;1.00
38938;DHT22;24727;51.974;20.868;2023-07-09T12:26:55;32.60;1.00
38938;DHT22;24727;51.974;20.868;2023-07-09T12:29:25;33.70;1.00
38938;DHT22;24727;51.974;20.868;2023-07-09T12:31:51;34.60;1.00
38938;DHT22;24727;51.974;20.868;2023-07-09T12:34:18;35.40;1.00
38938;DHT22;24727;51.974;20.868;2023-07-09T12:36:48;35.10;1.00
38938;DHT22;24727;51.974;20.868;2023-07-09T12:39:18;34.20;1.00
38938;DHT22;24727;51.974;20.868;2023-07-09T12:41:47;32.20;1.00
38938;DHT22;24727;51.974;20.868;2023-07-09T12:44:22;33.50;1.00
38938;DHT22;24727;51.974;20.868;2023-07-09T12:46:51;34.50;1.00
38938;DHT22;24727;51.974;20.868;2023-07-09T12:49:29;33.40;1.00
38938;DHT22;24727;51.974;20.868;2023-07-09T12:52:02;32.90;1.00
38938;DHT22;24727;51.974;20.868;2023-07-09T12:54:29;32.20;1.00
38938;DHT22;24727;51.974;20.868;2023-07-09T12:56:58;30.00;1.00
38938;DHT22;24727;51.974;20.868;2023-07-09T12:59:26;29.90;1.00
38938;DHT22;24727;51.974;20.868;2023-07-09T13:04:41;29.90;1.00
38938;DHT22;24727;51.974;20.868;2023-07-09T13:07:27;29.80;1.00
38938;DHT22;24727;51.974;20.868;2023-07-09T13:09:56;28.60;1.00
38938;DHT22;24727;51.974;20.868;2023-07-09T13:12:31;28.50;1.00
38938;DHT22;24727;51.974;20.868;2023-07-09T13:14:58;28.00;1.00
38938;DHT22;24727;51.974;20.868;2023-07-09T13:17:31;29.10;1.00
38938;DHT22;24727;51.974;20.868;2023-07-09T13:19:58;28.20;1.00
38938;DHT22;24727;51.974;20.868;2023-07-09T13:22:24;29.30;1.00
38938;DHT22;24727;51.974;20.868;2023-07-09T13:24:50;29.90;1.00
38938;DHT22;24727;51.974;20.868;2023-07-09T13:27:17;28.80;1.00
38938;DHT22;24727;51.974;20.868;2023-07-09T13:29:44;27.90;1.00
38938;DHT22;24727;51.974;20.868;2023-07-09T13:32:11;28.20;1.00
38938;DHT22;24727;51.974;20.868;2023-07-09T13:34:37;29.00;1.00
38938;DHT22;24727;51.974;20.868;2023-07-09T13:37:08;29.30;1.00
38938;DHT22;24727;51.974;20.868;2023-07-09T13:39:34;30.50;1.00
38938;DHT22;24727;51.974;20.868;2023-07-09T13:42:01;31.30;1.00
38938;DHT22;24727;51.974;20.868;2023-07-09T13:44:29;31.60;1.00
38938;DHT22;24727;51.974;20.868;2023-07-09T13:46:56;32.50;1.00
38938;DHT22;24727;51.974;20.868;2023-07-09T13:49:25;33.30;1.00
38938;DHT22;24727;51.974;20.868;2023-07-09T13:51:54;33.60;1.00
38938;DHT22;24727;51.974;20.868;2023-07-09T13:54:23;32.00;1.00
38938;DHT22;24727;51.974;20.868;2023-07-09T13:56:50;30.20;1.00
38938;DHT22;24727;51.974;20.868;2023-07-09T13:59:19;28.90;1.00
38938;DHT22;24727;51.974;20.868;2023-07-09T14:01:47;27.80;1.00
38938;DHT22;24727;51.974;20.868;2023-07-09T14:04:16;27.10;1.00
38938;DHT22;24727;51.974;20.868;2023-07-09T14:06:44;27.20;1.00
38938;DHT22;24727;51.974;20.868;2023-07-09T14:09:12;27.00;1.00
38938;DHT22;24727;51.974;20.868;2023-07-09T14:11:45;26.80;1.00
38938;DHT22;24727;51.974;20.868;2023-07-09T14:14:32;27.80;1.00
38938;DHT22;24727;51.974;20.868;2023-07-09T14:16:59;29.20;1.00
38938;DHT22;24727;51.974;20.868;2023-07-09T14:19:26;29.80;1.00
38938;DHT22;24727;51.974;20.868;2023-07-09T14:21:53;30.50;1.00
38938;DHT22;24727;51.974;20.868;2023-07-09T14:24:25;30.20;1.00
38938;DHT22;24727;51.974;20.868;2023-07-09T14:26:52;29.60;1.00
38938;DHT22;24727;51.974;20.868;2023-07-09T14:29:19;30.10;1.00
38938;DHT22;24727;51.974;20.868;2023-07-09T14:31:46;29.30;1.00
38938;DHT22;24727;51.974;20.868;2023-07-09T14:36:42;28.90;1.00
38938;DHT22;24727;51.974;20.868;2023-07-09T14:39:12;29.70;1.00
38938;DHT22;24727;51.974;20.868;2023-07-09T14:41:38;30.10;1.00
38938;DHT22;24727;51.974;20.868;2023-07-09T14:44:26;29.80;1.00
38938;DHT22;24727;51.974;20.868;2023-07-09T14:46:54;28.00;1.00
38938;DHT22;24727;51.974;20.868;2023-07-09T14:49:21;27.70;1.00
38938;DHT22;24727;51.974;20.868;2023-07-09T14:51:47;27.50;1.00
38938;DHT22;24727;51.974;20.868;2023-07-09T14:54:21;27.40;1.00
38938;DHT22;24727;51.974;20.868;2023-07-09T14:56:48;28.00;1.00
38938;DHT22;24727;51.974;20.868;2023-07-09T14:59:14;28.90;1.00
38938;DHT22;24727;51.974;20.868;2023-07-09T15:01:46;28.80;1.00
38938;DHT22;24727;51.974;20.868;2023-07-09T15:04:32;28.80;1.00
38938;DHT22;24727;51.974;20.868;2023-07-09T15:06:59;28.50;1.00
38938;DHT22;24727;51.974;20.868;2023-07-09T15:09:36;28.80;1.00
38938;DHT22;24727;51.974;20.868;2023-07-09T15:12:03;28.80;1.00
38938;DHT22;24727;51.974;20.868;2023-07-09T15:14:29;27.90;1.00
38938;DHT22;24727;51.974;20.868;2023-07-09T15:16:56;27.90;1.00
38938;DHT22;24727;51.974;20.868;2023-07-09T15:19:22;27.20;1.00
38938;DHT22;24727;51.974;20.868;2023-07-09T15:21:49;26.90;1.00
38938;DHT22;24727;51.974;20.868;2023-07-09T15:24:29;26.50;1.00
38938;DHT22;24727;51.974;20.868;2023-07-09T15:26:59;26.70;1.00
38938;DHT22;24727;51.974;20.868;2023-07-09T15:29:27;26.60;1.00
38938;DHT22;24727;51.974;20.868;2023-07-09T15:31:54;26.50;1.00
38938;DHT22;24727;51.974;20.868;2023-07-09T15:34:21;26.40;1.00
38938;DHT22;24727;51.974;20.868;2023-07-09T15:36:50;26.40;1.00
38938;DHT22;24727;51.974;20.868;2023-07-09T15:39:17;26.40;1.00
38938;DHT22;24727;51.974;20.868;2023-07-09T15:41:45;26.20;1.00
38938;DHT22;24727;51.974;20.868;2023-07-09T15:44:14;26.20;1.00
38938;DHT22;24727;51.974;20.868;2023-07-09T15:46:55;26.20;1.00
38938;DHT22;24727;51.974;20.868;2023-07-09T15:49:23;26.30;1.00
38938;DHT22;24727;51.974;20.868;2023-07-09T15:51:49;26.40;1.00
38938;DHT22;24727;51.974;20.868;2023-07-09T15:54:20;26.80;1.00
38938;DHT22;24727;51.974;20.868;2023-07-09T15:56:48;26.50;1.00
38938;DHT22;24727;51.974;20.868;2023-07-09T15:59:35;26.50;1.00
38938;DHT22;24727;51.974;20.868;2023-07-09T16:02:09;26.80;1.00
38938;DHT22;24727;51.974;20.868;2023-07-09T16:04:35;27.40;1.00
38938;DHT22;24727;51.974;20.868;2023-07-09T16:07:01;27.70;1.00
38938;DHT22;24727;51.974;20.868;2023-07-09T16:09:28;28.10;1.00
38938;DHT22;24727;51.974;20.868;2023-07-09T16:11:54;28.10;1.00